createdAt,value
2022-09-18T00:02:21.408Z,8.20
2022-09-18T00:04:48.002Z,8.10
2022-09-18T00:07:14.674Z,8.30
2022-09-18T00:09:41.258Z,7.50
2022-09-18T00:12:07.862Z,8.60
2022-09-18T00:14:34.600Z,8.20
2022-09-18T00:17:03.770Z,7.70
2022-09-18T00:19:33.579Z,8.10
2022-09-18T00:22:00.200Z,7.90
2022-09-18T00:24:26.899Z,7.00
2022-09-18T00:26:53.479Z,8.00
2022-09-18T00:31:47.686Z,8.00
2022-09-18T00:34:15.172Z,8.10
2022-09-18T00:36:42.097Z,7.80
2022-09-18T00:39:08.866Z,7.80
2022-09-18T00:41:37.034Z,7.80
2022-09-18T00:44:22.472Z,7.70
2022-09-18T00:46:49.147Z,8.10
2022-09-18T00:49:20.802Z,8.00
2022-09-18T00:51:48.318Z,8.10
2022-09-18T00:54:21.495Z,8.20
2022-09-18T00:56:49.739Z,8.20
2022-09-18T00:59:19.802Z,9.00
2022-09-18T01:01:46.406Z,8.40
2022-09-18T01:04:13.119Z,8.50
2022-09-18T01:06:47.125Z,8.70
2022-09-18T01:11:56.035Z,8.90
2022-09-18T01:16:49.581Z,8.80
2022-09-18T01:19:28.337Z,9.00
2022-09-18T01:22:00.941Z,9.00
2022-09-18T01:24:40.455Z,9.00
2022-09-18T01:27:09.868Z,9.10
2022-09-18T01:29:45.303Z,9.00
2022-09-18T01:32:26.583Z,9.20
2022-09-18T01:34:58.580Z,9.20
2022-09-18T01:37:34.541Z,9.10
2022-09-18T01:40:18.419Z,9.10
2022-09-18T01:42:46.700Z,9.10
2022-09-18T01:45:15.943Z,9.10
2022-09-18T01:47:48.105Z,9.10
2022-09-18T01:50:15.523Z,9.10
2022-09-18T01:52:48.597Z,9.00
2022-09-18T01:55:18.523Z,9.00
2022-09-18T01:57:50.856Z,9.50
2022-09-18T02:00:17.740Z,8.90
2022-09-18T02:02:47.810Z,9.10
2022-09-18T02:05:18.567Z,9.00
2022-09-18T02:07:56.671Z,9.10
2022-09-18T02:10:25.132Z,9.10
2022-09-18T02:12:54.036Z,9.00
2022-09-18T02:15:22.206Z,9.10
2022-09-18T02:17:48.741Z,9.00
2022-09-18T02:20:20.611Z,9.20
2022-09-18T02:22:49.392Z,9.20
2022-09-18T02:25:18.401Z,9.20
2022-09-18T02:27:45.035Z,9.10
2022-09-18T02:30:12.298Z,9.20
2022-09-18T02:32:39.891Z,9.30
2022-09-18T02:35:07.917Z,9.00
2022-09-18T02:37:49.991Z,9.20
2022-09-18T02:40:19.725Z,9.20
2022-09-18T02:42:59.067Z,9.30
2022-09-18T02:45:29.988Z,9.20
2022-09-18T02:48:14.102Z,9.00
2022-09-18T02:50:47.991Z,9.20
2022-09-18T02:53:47.023Z,9.10
2022-09-18T02:56:16.572Z,9.30
2022-09-18T02:58:45.820Z,9.30
2022-09-18T03:01:12.789Z,9.10
2022-09-18T03:03:39.531Z,9.20
2022-09-18T03:06:07.217Z,9.20
2022-09-18T03:08:33.927Z,9.40
2022-09-18T03:11:00.486Z,9.10
2022-09-18T03:13:27.568Z,9.30
2022-09-18T03:15:57.347Z,9.30
2022-09-18T03:18:24.370Z,9.30
2022-09-18T03:20:50.950Z,9.30
2022-09-18T03:23:17.577Z,9.20
2022-09-18T03:25:44.138Z,9.20
2022-09-18T03:28:10.689Z,9.20
2022-09-18T03:30:37.284Z,9.40
2022-09-18T03:33:04.086Z,9.30
2022-09-18T03:35:32.202Z,9.40
2022-09-18T03:37:58.815Z,9.40
2022-09-18T03:40:25.404Z,9.40
2022-09-18T03:42:52.071Z,9.50
2022-09-18T03:45:18.862Z,9.50
2022-09-18T03:47:46.773Z,9.40
2022-09-18T03:50:13.548Z,9.50
2022-09-18T03:52:40.099Z,9.50
2022-09-18T03:55:06.810Z,9.40
2022-09-18T03:57:33.463Z,9.60
2022-09-18T04:00:00.031Z,9.30
2022-09-18T04:02:26.635Z,9.40
2022-09-18T04:04:53.939Z,9.50
2022-09-18T04:07:20.816Z,9.60
2022-09-18T04:09:47.424Z,9.50
2022-09-18T04:12:14.259Z,9.40
2022-09-18T04:14:40.891Z,9.50
2022-09-18T04:17:07.477Z,9.50
2022-09-18T04:19:34.016Z,9.40
2022-09-18T04:22:00.611Z,9.50
2022-09-18T04:24:27.472Z,9.50
2022-09-18T04:26:54.061Z,9.40
2022-09-18T04:29:20.632Z,9.20
2022-09-18T04:31:47.295Z,9.40
2022-09-18T04:34:14.915Z,9.30
2022-09-18T04:36:41.514Z,9.20
2022-09-18T04:39:08.079Z,9.10
2022-09-18T04:41:34.921Z,9.40
2022-09-18T04:44:01.726Z,10.70
2022-09-18T04:46:28.311Z,9.40
2022-09-18T04:48:54.952Z,9.30
2022-09-18T04:51:21.510Z,9.30
2022-09-18T04:53:48.122Z,9.40
2022-09-18T04:56:14.725Z,9.40
2022-09-18T04:58:41.302Z,9.30
2022-09-18T05:01:08.131Z,9.40
2022-09-18T05:03:34.779Z,9.50
2022-09-18T05:06:01.452Z,9.30
2022-09-18T05:08:28.404Z,9.40
2022-09-18T05:10:55.141Z,9.40
2022-09-18T05:13:21.696Z,9.40
2022-09-18T05:15:48.278Z,9.40
2022-09-18T05:18:14.882Z,9.30
2022-09-18T05:20:41.819Z,9.40
2022-09-18T05:23:08.497Z,9.40
2022-09-18T05:25:37.202Z,9.50
2022-09-18T05:28:03.994Z,9.50
2022-09-18T05:30:31.168Z,9.30
2022-09-18T05:32:59.389Z,9.40
2022-09-18T05:35:27.335Z,9.40
2022-09-18T05:37:54.332Z,9.40
2022-09-18T05:40:21.540Z,9.30
2022-09-18T05:42:48.408Z,9.10
2022-09-18T05:45:15.373Z,9.20
2022-09-18T05:47:42.115Z,9.20
2022-09-18T05:50:09.411Z,9.10
2022-09-18T05:52:36.164Z,9.30
2022-09-18T05:55:02.761Z,9.30
2022-09-18T05:57:29.303Z,9.10
2022-09-18T05:59:55.883Z,9.20
2022-09-18T06:02:22.455Z,9.00
2022-09-18T06:04:49.102Z,9.30
2022-09-18T06:07:17.530Z,9.10
2022-09-18T06:09:44.237Z,9.10
2022-09-18T06:12:10.774Z,9.20
2022-09-18T06:14:37.434Z,8.60
2022-09-18T06:17:03.992Z,8.70
2022-09-18T06:19:31.671Z,9.10
2022-09-18T06:21:58.270Z,9.30
2022-09-18T06:24:24.876Z,9.30
2022-09-18T06:26:52.069Z,9.20
2022-09-18T06:29:18.633Z,9.20
2022-09-18T06:31:45.248Z,9.30
2022-09-18T06:34:11.872Z,9.40
2022-09-18T06:36:38.540Z,9.30
2022-09-18T06:39:05.168Z,9.20
2022-09-18T06:41:31.709Z,9.10
2022-09-18T06:43:58.253Z,9.20
2022-09-18T06:46:24.874Z,9.40
2022-09-18T06:48:51.647Z,10.30
2022-09-18T06:51:21.233Z,9.10
2022-09-18T06:53:47.815Z,9.60
2022-09-18T06:56:14.403Z,9.30
2022-09-18T06:58:40.964Z,9.20
2022-09-18T07:01:08.814Z,9.40
2022-09-18T07:03:35.440Z,9.50
2022-09-18T07:06:02.001Z,9.30
2022-09-18T07:08:28.585Z,9.30
2022-09-18T07:10:59.612Z,9.30
2022-09-18T07:13:26.160Z,9.30
2022-09-18T07:15:52.751Z,9.40
2022-09-18T07:18:19.614Z,9.30
2022-09-18T07:20:46.202Z,9.50
2022-09-18T07:23:12.741Z,9.30
2022-09-18T07:25:39.311Z,9.30
2022-09-18T07:28:08.060Z,9.30
2022-09-18T07:30:35.555Z,9.50
2022-09-18T07:33:02.964Z,9.60
2022-09-18T07:35:29.602Z,9.10
2022-09-18T07:38:03.286Z,9.10
2022-09-18T07:40:30.095Z,9.70
2022-09-18T07:43:00.709Z,8.90
2022-09-18T07:45:27.536Z,9.50
2022-09-18T07:47:54.091Z,8.80
2022-09-18T07:52:53.615Z,9.70
2022-09-18T07:55:21.178Z,9.20
2022-09-18T07:57:48.432Z,9.60
2022-09-18T08:00:15.662Z,9.60
2022-09-18T08:02:42.394Z,9.70
2022-09-18T08:05:09.566Z,9.40
2022-09-18T08:07:39.710Z,9.70
2022-09-18T08:10:07.611Z,10.30
2022-09-18T08:12:34.627Z,9.70
2022-09-18T08:15:01.356Z,9.10
2022-09-18T08:17:29.380Z,9.70
2022-09-18T08:19:56.367Z,9.60
2022-09-18T08:22:33.495Z,10.20
2022-09-18T08:25:00.142Z,9.60
2022-09-18T08:27:26.726Z,9.20
2022-09-18T08:29:55.569Z,9.60
2022-09-18T08:32:22.557Z,9.70
2022-09-18T08:34:49.677Z,9.70
2022-09-18T08:37:16.302Z,10.50
2022-09-18T08:39:42.980Z,9.70
2022-09-18T08:42:23.996Z,9.00
2022-09-18T08:44:55.402Z,9.80
2022-09-18T08:47:33.479Z,9.70
2022-09-18T08:50:00.052Z,9.90
2022-09-18T08:52:28.918Z,9.80
2022-09-18T08:55:04.527Z,9.80
2022-09-18T08:57:38.858Z,9.90
2022-09-18T09:00:12.186Z,9.80
2022-09-18T09:02:53.213Z,9.90
2022-09-18T09:05:25.782Z,9.80
2022-09-18T09:07:52.318Z,9.80
2022-09-18T09:10:31.126Z,9.90
2022-09-18T09:13:04.899Z,10.10
2022-09-18T09:15:31.574Z,10.30
2022-09-18T09:18:21.408Z,10.40
2022-09-18T09:20:52.175Z,10.50
2022-09-18T09:23:22.753Z,10.50
2022-09-18T09:26:05.439Z,10.50
2022-09-18T09:36:03.934Z,11.00
2022-09-18T09:38:47.650Z,11.50
2022-09-18T09:41:33.307Z,11.50
2022-09-18T09:44:10.439Z,11.40
2022-09-18T09:46:46.038Z,11.10
2022-09-18T09:49:23.661Z,11.10
2022-09-18T09:52:00.301Z,11.40
2022-09-18T09:54:26.973Z,11.40
2022-09-18T10:01:54.178Z,11.60
2022-09-18T10:04:29.338Z,11.60
2022-09-18T10:07:03.011Z,11.60
2022-09-18T10:09:39.544Z,11.50
2022-09-18T10:12:17.298Z,11.50
2022-09-18T10:14:46.752Z,11.50
2022-09-18T10:17:15.543Z,11.60
2022-09-18T10:19:43.144Z,11.40
2022-09-18T10:22:12.160Z,11.60
2022-09-18T10:24:42.265Z,11.60
2022-09-18T10:27:15.824Z,12.00
2022-09-18T10:29:42.642Z,11.30
2022-09-18T10:32:12.797Z,11.10
2022-09-18T10:34:47.614Z,10.90
2022-09-18T10:37:15.952Z,11.30
2022-09-18T10:39:50.684Z,12.20
2022-09-18T10:42:18.976Z,11.60
2022-09-18T10:45:01.418Z,12.90
2022-09-18T10:47:32.671Z,11.60
2022-09-18T10:50:02.784Z,11.60
2022-09-18T10:52:48.582Z,11.60
2022-09-18T11:00:12.936Z,11.80
2022-09-18T11:09:01.145Z,11.90
2022-09-18T11:11:32.727Z,12.00
2022-09-18T11:14:10.622Z,12.10
2022-09-18T11:16:39.157Z,12.10
2022-09-18T11:19:12.791Z,11.10
2022-09-18T11:21:49.214Z,12.20
2022-09-18T11:24:36.079Z,11.80
2022-09-18T11:27:03.906Z,12.60
2022-09-18T11:29:32.039Z,12.40
2022-09-18T11:32:02.372Z,11.60
2022-09-18T11:34:31.179Z,11.50
2022-09-18T11:37:08.289Z,12.50
2022-09-18T11:39:36.982Z,11.30
2022-09-18T11:42:07.910Z,11.10
2022-09-18T11:44:35.073Z,10.70
2022-09-18T11:47:01.731Z,10.00
2022-09-18T11:49:31.375Z,12.80
2022-09-18T11:52:01.307Z,12.20
2022-09-18T11:54:31.624Z,11.20
2022-09-18T11:57:03.289Z,12.20
2022-09-18T11:59:34.175Z,11.40
2022-09-18T12:02:05.157Z,11.30
2022-09-18T12:04:49.233Z,10.80
2022-09-18T12:07:38.320Z,11.60
2022-09-18T12:10:28.264Z,11.60
2022-09-18T12:13:13.625Z,11.50
2022-09-18T12:15:41.313Z,11.40
2022-09-18T12:18:07.838Z,10.90
2022-09-18T12:20:40.234Z,10.70
2022-09-18T12:23:12.205Z,11.30
2022-09-18T12:25:38.828Z,11.90
2022-09-18T12:28:07.096Z,13.00
2022-09-18T12:30:43.717Z,11.10
2022-09-18T12:33:16.517Z,11.40
2022-09-18T12:35:58.111Z,11.30
2022-09-18T12:38:43.122Z,11.50
2022-09-18T12:41:29.301Z,11.70
2022-09-18T12:43:59.104Z,11.80
2022-09-18T12:46:44.178Z,11.80
2022-09-18T12:49:23.159Z,11.90
2022-09-18T12:52:16.266Z,11.90
2022-09-18T12:55:07.679Z,11.80
2022-09-18T12:57:53.952Z,11.80
2022-09-18T13:00:22.201Z,11.60
2022-09-18T13:02:53.555Z,11.70
2022-09-18T13:05:38.680Z,11.70
2022-09-18T13:08:20.232Z,11.80
2022-09-18T13:10:49.105Z,11.70
2022-09-18T13:13:25.011Z,11.70
2022-09-18T13:15:57.542Z,11.70
2022-09-18T13:18:28.662Z,11.80
2022-09-18T13:20:56.945Z,11.80
2022-09-18T13:23:43.758Z,11.90
2022-09-18T13:26:11.681Z,12.00
2022-09-18T13:28:40.905Z,12.10
2022-09-18T13:31:13.725Z,12.60
2022-09-18T13:33:48.716Z,12.00
2022-09-18T13:36:21.624Z,12.00
2022-09-18T13:38:48.647Z,11.30
2022-09-18T13:41:16.396Z,12.00
2022-09-18T13:43:51.328Z,13.60
2022-09-18T13:46:31.941Z,11.10
2022-09-18T13:49:00.198Z,12.00
2022-09-18T13:51:31.290Z,11.80
2022-09-18T13:54:13.552Z,11.80
2022-09-18T13:56:59.021Z,11.80
2022-09-18T13:59:43.481Z,11.70
2022-09-18T14:02:23.582Z,11.70
2022-09-18T14:04:57.433Z,11.70
2022-09-18T14:07:24.005Z,11.40
2022-09-18T14:09:56.021Z,12.60
2022-09-18T14:12:23.422Z,11.40
2022-09-18T14:14:57.661Z,11.30
2022-09-18T14:17:25.839Z,11.30
2022-09-18T14:20:08.330Z,12.10
2022-09-18T14:22:38.071Z,11.30
2022-09-18T14:25:16.013Z,11.30
2022-09-18T14:27:45.464Z,11.40
2022-09-18T14:30:18.270Z,11.40
2022-09-18T14:32:57.857Z,11.40
2022-09-18T14:35:37.358Z,11.30
2022-09-18T14:38:17.760Z,11.40
2022-09-18T14:40:48.816Z,11.40
2022-09-18T14:43:19.220Z,12.30
2022-09-18T14:45:48.413Z,10.50
2022-09-18T14:48:27.003Z,10.90
2022-09-18T14:51:01.511Z,10.90
2022-09-18T14:53:28.811Z,10.80
2022-09-18T14:55:57.466Z,10.80
2022-09-18T14:58:26.168Z,10.70
2022-09-18T15:00:54.526Z,10.70
2022-09-18T15:03:21.161Z,10.60
2022-09-18T15:05:50.989Z,10.50
2022-09-18T15:08:21.683Z,10.50
2022-09-18T15:10:52.263Z,10.50
2022-09-18T15:13:20.709Z,10.40
2022-09-18T15:15:47.758Z,10.50
2022-09-18T15:18:17.383Z,10.50
2022-09-18T15:20:49.716Z,10.50
2022-09-18T15:23:29.926Z,10.50
2022-09-18T15:25:59.291Z,10.60
2022-09-18T15:28:26.841Z,10.50
2022-09-18T15:30:57.384Z,10.50
2022-09-18T15:33:26.305Z,10.50
2022-09-18T15:35:54.348Z,10.90
2022-09-18T15:38:26.088Z,11.40
2022-09-18T15:40:53.343Z,11.50
2022-09-18T15:43:29.115Z,10.40
2022-09-18T15:46:12.323Z,10.30
2022-09-18T15:48:39.054Z,10.30
2022-09-18T15:51:13.207Z,10.30
2022-09-18T15:53:40.077Z,10.60
2022-09-18T15:56:08.254Z,10.30
2022-09-18T15:58:35.100Z,10.20
2022-09-18T16:01:05.413Z,10.20
2022-09-18T16:03:32.638Z,10.20
2022-09-18T16:06:03.815Z,10.20
2022-09-18T16:08:32.209Z,10.20
2022-09-18T16:10:59.970Z,10.10
2022-09-18T16:13:26.853Z,10.10
2022-09-18T16:16:08.996Z,10.10
2022-09-18T16:18:47.681Z,10.10
2022-09-18T16:21:23.856Z,10.10
2022-09-18T16:23:53.406Z,9.60
2022-09-18T16:26:19.972Z,10.20
2022-09-18T16:28:48.105Z,10.20
2022-09-18T16:31:17.234Z,9.90
2022-09-18T16:33:49.088Z,11.30
2022-09-18T16:36:30.310Z,10.10
2022-09-18T16:38:58.086Z,10.10
2022-09-18T16:41:24.813Z,10.10
2022-09-18T16:43:51.515Z,10.00
2022-09-18T16:46:20.679Z,10.00
2022-09-18T16:48:47.452Z,10.00
2022-09-18T16:51:14.073Z,10.00
2022-09-18T16:53:41.500Z,10.00
2022-09-18T16:56:11.262Z,10.00
2022-09-18T16:58:39.184Z,9.90
2022-09-18T17:01:05.792Z,9.90
2022-09-18T17:03:32.676Z,9.90
2022-09-18T17:06:02.031Z,10.60
2022-09-18T17:08:29.347Z,9.90
2022-09-18T17:10:56.146Z,9.90
2022-09-18T17:13:23.178Z,9.90
2022-09-18T17:15:49.746Z,10.00
2022-09-18T17:18:16.433Z,10.00
2022-09-18T17:20:43.152Z,9.30
2022-09-18T17:23:09.743Z,9.80
2022-09-18T17:25:36.872Z,9.90
2022-09-18T17:28:03.508Z,9.90
2022-09-18T17:30:30.171Z,9.80
2022-09-18T17:32:56.836Z,10.00
2022-09-18T17:35:23.531Z,9.80
2022-09-18T17:37:51.710Z,9.80
2022-09-18T17:40:19.468Z,9.80
2022-09-18T17:42:46.118Z,9.70
2022-09-18T17:45:12.677Z,9.80
2022-09-18T17:47:39.242Z,9.80
2022-09-18T17:50:06.162Z,10.20
2022-09-18T17:52:34.100Z,9.70
2022-09-18T17:55:00.696Z,9.50
2022-09-18T17:57:27.571Z,9.70
2022-09-18T17:59:54.134Z,9.70
2022-09-18T18:02:20.970Z,9.90
2022-09-18T18:04:47.634Z,9.90
2022-09-18T18:07:14.438Z,9.50
2022-09-18T18:09:41.067Z,9.40
2022-09-18T18:12:07.726Z,9.50
2022-09-18T18:14:34.646Z,9.50
2022-09-18T18:17:01.254Z,9.50
2022-09-18T18:19:27.887Z,9.30
2022-09-18T18:21:54.590Z,9.30
2022-09-18T18:24:21.450Z,8.80
2022-09-18T18:26:48.432Z,9.40
2022-09-18T18:29:16.557Z,9.70
2022-09-18T18:31:43.680Z,9.40
2022-09-18T18:34:11.270Z,9.10
2022-09-18T18:36:38.985Z,9.50
2022-09-18T18:39:09.774Z,8.70
2022-09-18T18:41:37.219Z,8.80
2022-09-18T18:44:05.662Z,8.80
2022-09-18T18:46:36.331Z,8.90
2022-09-18T18:49:09.007Z,8.90
2022-09-18T18:51:43.673Z,8.60
2022-09-18T18:54:10.916Z,9.10
2022-09-18T18:56:38.498Z,8.90
2022-09-18T18:59:06.110Z,9.10
2022-09-18T19:01:33.276Z,8.80
2022-09-18T19:04:02.116Z,8.70
2022-09-18T19:06:29.442Z,8.00
2022-09-18T19:08:57.316Z,9.50
2022-09-18T19:11:24.233Z,9.00
2022-09-18T19:13:51.273Z,8.50
2022-09-18T19:16:19.770Z,8.40
2022-09-18T19:18:50.635Z,8.10
2022-09-18T19:21:18.292Z,7.90
2022-09-18T19:28:41.044Z,8.30
2022-09-18T19:31:07.685Z,7.90
2022-09-18T19:33:34.489Z,8.40
2022-09-18T19:36:05.858Z,8.90
2022-09-18T19:38:33.454Z,8.20
2022-09-18T19:41:02.101Z,8.50
2022-09-18T19:43:30.992Z,7.90
2022-09-18T19:45:57.642Z,8.00
2022-09-18T19:48:25.647Z,8.50
2022-09-18T19:50:52.953Z,7.70
2022-09-18T19:53:20.078Z,8.50
2022-09-18T19:55:47.380Z,7.70
2022-09-18T19:58:15.486Z,8.40
2022-09-18T20:00:43.156Z,8.20
2022-09-18T20:03:10.214Z,8.90
2022-09-18T20:05:37.378Z,9.20
2022-09-18T20:08:06.333Z,7.90
2022-09-18T20:10:33.755Z,8.70
2022-09-18T20:13:00.343Z,7.90
2022-09-18T20:15:27.009Z,8.20
2022-09-18T20:17:55.691Z,7.30
2022-09-18T20:20:22.378Z,7.60
2022-09-18T20:22:52.008Z,7.30
2022-09-18T20:25:18.630Z,7.00
2022-09-18T20:27:45.215Z,9.70
2022-09-18T20:30:15.539Z,7.60
2022-09-18T20:32:57.407Z,8.60
2022-09-18T20:35:24.091Z,8.10
2022-09-18T20:37:51.482Z,8.00
2022-09-18T20:40:18.147Z,7.50
2022-09-18T20:42:44.925Z,8.00
2022-09-18T20:45:11.467Z,6.90
2022-09-18T20:47:38.124Z,8.30
2022-09-18T20:50:08.791Z,6.50
2022-09-18T20:52:41.873Z,7.60
2022-09-18T20:55:09.726Z,8.10
2022-09-18T20:57:36.885Z,8.10
2022-09-18T21:00:08.027Z,8.10
2022-09-18T21:02:38.088Z,7.80
2022-09-18T21:05:07.540Z,7.60
2022-09-18T21:07:34.596Z,7.80
2022-09-18T21:10:01.183Z,7.00
2022-09-18T21:12:29.260Z,7.30
2022-09-18T21:17:22.930Z,7.50
2022-09-18T21:19:50.571Z,7.30
2022-09-18T21:22:17.406Z,7.50
2022-09-18T21:24:44.266Z,6.90
2022-09-18T21:27:10.946Z,7.60
2022-09-18T21:29:40.656Z,6.80
2022-09-18T21:32:07.548Z,7.20
2022-09-18T21:34:34.251Z,6.70
2022-09-18T21:37:01.952Z,7.30
2022-09-18T21:39:28.990Z,7.40
2022-09-18T21:41:57.490Z,7.70
2022-09-18T21:44:26.968Z,6.80
2022-09-18T21:46:54.503Z,7.20
2022-09-18T21:49:22.770Z,7.20
2022-09-18T21:51:50.012Z,7.90
2022-09-18T21:54:18.326Z,6.70
2022-09-18T21:56:46.013Z,6.80
2022-09-18T21:59:12.795Z,6.60
2022-09-18T22:01:39.538Z,7.10
2022-09-18T22:04:07.317Z,7.20
2022-09-18T22:06:35.952Z,7.30
2022-09-18T22:09:05.886Z,7.60
2022-09-18T22:11:36.848Z,6.90
2022-09-18T22:14:06.433Z,7.00
2022-09-18T22:16:33.596Z,6.80
2022-09-18T22:19:00.331Z,7.40
2022-09-18T22:21:28.645Z,7.00
2022-09-18T22:23:57.175Z,7.00
2022-09-18T22:26:24.966Z,6.90
2022-09-18T22:28:53.987Z,7.10
2022-09-18T22:31:20.876Z,6.70
2022-09-18T22:33:48.320Z,7.40
2022-09-18T22:36:15.678Z,6.40
2022-09-18T22:38:42.239Z,6.60
2022-09-18T22:41:09.378Z,6.80
2022-09-18T22:43:35.945Z,6.60
2022-09-18T22:46:03.675Z,7.10
2022-09-18T22:48:33.470Z,7.00
2022-09-18T22:51:04.540Z,6.60
2022-09-18T22:53:31.105Z,6.50
2022-09-18T22:56:16.583Z,6.20
2022-09-18T22:58:44.266Z,6.40
2022-09-18T23:01:10.861Z,5.70
2022-09-18T23:03:38.177Z,6.30
2022-09-18T23:06:06.370Z,7.50
2022-09-18T23:08:33.654Z,6.40
2022-09-18T23:11:01.964Z,6.80
2022-09-18T23:13:28.798Z,6.60
2022-09-18T23:20:49.538Z,6.50
2022-09-18T23:23:16.074Z,6.60
2022-09-18T23:25:42.576Z,6.60
2022-09-18T23:28:09.133Z,6.00
2022-09-18T23:30:36.415Z,6.50
2022-09-18T23:33:02.961Z,6.40
2022-09-18T23:35:36.107Z,6.80
2022-09-18T23:38:23.924Z,6.50
2022-09-18T23:40:50.430Z,6.80
2022-09-18T23:43:20.039Z,6.30
2022-09-18T23:45:46.614Z,6.70
2022-09-18T23:48:13.161Z,6.60
2022-09-18T23:50:43.290Z,7.40
2022-09-18T23:53:09.863Z,5.90
2022-09-18T23:55:36.443Z,7.10
2022-09-18T23:58:03.042Z,6.50
